sensor_id;sensor_type;location;lat;lon;timestamp;temperature;humidity
3310;DHT22;1667;53.238;10.394;2022-12-29T00:01:53;10.60;99.90
3310;DHT22;1667;53.238;10.394;2022-12-29T00:06:52;10.60;99.90
3310;DHT22;1667;53.238;10.394;2022-12-29T00:11:52;10.60;99.90
3310;DHT22;1667;53.238;10.394;2022-12-29T00:16:51;10.60;99.90
3310;DHT22;1667;53.238;10.394;2022-12-29T00:21:50;10.60;99.90
3310;DHT22;1667;53.238;10.394;2022-12-29T00:27:13;10.70;99.90
3310;DHT22;1667;53.238;10.394;2022-12-29T00:32:29;10.70;99.90
3310;DHT22;1667;53.238;10.394;2022-12-29T00:37:47;10.70;99.90
3310;DHT22;1667;53.238;10.394;2022-12-29T00:43:05;10.70;99.90
3310;DHT22;1667;53.238;10.394;2022-12-29T00:48:21;10.80;99.90
3310;DHT22;1667;53.238;10.394;2022-12-29T00:53:34;10.70;99.90
3310;DHT22;1667;53.238;10.394;2022-12-29T00:58:34;10.70;99.90
3310;DHT22;1667;53.238;10.394;2022-12-29T01:03:33;10.70;99.90
3310;DHT22;1667;53.238;10.394;2022-12-29T01:08:31;10.80;99.90
3310;DHT22;1667;53.238;10.394;2022-12-29T01:13:30;10.70;99.90
3310;DHT22;1667;53.238;10.394;2022-12-29T01:18:30;10.80;99.90
3310;DHT22;1667;53.238;10.394;2022-12-29T01:23:30;10.80;99.90
3310;DHT22;1667;53.238;10.394;2022-12-29T01:28:29;10.80;99.90
3310;DHT22;1667;53.238;10.394;2022-12-29T01:33:30;10.80;99.90
3310;DHT22;1667;53.238;10.394;2022-12-29T01:38:30;10.70;99.90
3310;DHT22;1667;53.238;10.394;2022-12-29T01:43:39;10.80;99.90
3310;DHT22;1667;53.238;10.394;2022-12-29T01:48:39;10.80;99.90
3310;DHT22;1667;53.238;10.394;2022-12-29T01:53:38;10.80;99.90
3310;DHT22;1667;53.238;10.394;2022-12-29T01:58:40;10.80;99.90
3310;DHT22;1667;53.238;10.394;2022-12-29T02:03:41;10.80;99.90
3310;DHT22;1667;53.238;10.394;2022-12-29T02:08:41;10.80;99.90
3310;DHT22;1667;53.238;10.394;2022-12-29T02:13:39;10.80;99.90
3310;DHT22;1667;53.238;10.394;2022-12-29T02:18:47;10.90;99.90
3310;DHT22;1667;53.238;10.394;2022-12-29T02:24:26;10.90;99.90
3310;DHT22;1667;53.238;10.394;2022-12-29T02:29:52;10.90;99.90
3310;DHT22;1667;53.238;10.394;2022-12-29T02:35:00;11.00;99.90
3310;DHT22;1667;53.238;10.394;2022-12-29T02:40:07;11.00;99.90
3310;DHT22;1667;53.238;10.394;2022-12-29T02:45:15;11.00;99.90
3310;DHT22;1667;53.238;10.394;2022-12-29T02:50:20;11.00;99.90
3310;DHT22;1667;53.238;10.394;2022-12-29T02:55:21;11.00;99.90
3310;DHT22;1667;53.238;10.394;2022-12-29T03:00:19;11.00;99.90
3310;DHT22;1667;53.238;10.394;2022-12-29T03:05:28;11.00;99.90
3310;DHT22;1667;53.238;10.394;2022-12-29T03:10:41;11.10;99.90
3310;DHT22;1667;53.238;10.394;2022-12-29T03:15:52;11.00;99.90
3310;DHT22;1667;53.238;10.394;2022-12-29T03:21:05;11.10;99.90
3310;DHT22;1667;53.238;10.394;2022-12-29T03:26:08;11.10;99.90
3310;DHT22;1667;53.238;10.394;2022-12-29T03:31:08;11.10;99.90
3310;DHT22;1667;53.238;10.394;2022-12-29T03:36:16;11.10;99.90
3310;DHT22;1667;53.238;10.394;2022-12-29T03:41:19;11.10;99.90
3310;DHT22;1667;53.238;10.394;2022-12-29T03:46:18;11.10;99.90
3310;DHT22;1667;53.238;10.394;2022-12-29T03:51:18;11.10;99.90
3310;DHT22;1667;53.238;10.394;2022-12-29T03:56:18;11.10;99.90
3310;DHT22;1667;53.238;10.394;2022-12-29T04:01:18;11.10;99.90
3310;DHT22;1667;53.238;10.394;2022-12-29T04:06:18;11.10;99.90
3310;DHT22;1667;53.238;10.394;2022-12-29T04:11:23;11.10;99.90
3310;DHT22;1667;53.238;10.394;2022-12-29T04:16:30;11.10;99.90
3310;DHT22;1667;53.238;10.394;2022-12-29T04:21:31;11.20;99.90
3310;DHT22;1667;53.238;10.394;2022-12-29T04:26:30;11.20;99.90
3310;DHT22;1667;53.238;10.394;2022-12-29T04:31:52;11.20;99.90
3310;DHT22;1667;53.238;10.394;2022-12-29T04:36:52;11.20;99.90
3310;DHT22;1667;53.238;10.394;2022-12-29T04:41:51;11.20;99.90
3310;DHT22;1667;53.238;10.394;2022-12-29T04:46:51;11.20;99.90
3310;DHT22;1667;53.238;10.394;2022-12-29T04:52:20;11.30;99.90
3310;DHT22;1667;53.238;10.394;2022-12-29T04:57:19;11.30;99.90
3310;DHT22;1667;53.238;10.394;2022-12-29T05:02:22;11.30;99.90
3310;DHT22;1667;53.238;10.394;2022-12-29T05:07:23;11.30;99.90
3310;DHT22;1667;53.238;10.394;2022-12-29T05:12:24;11.30;99.90
3310;DHT22;1667;53.238;10.394;2022-12-29T05:17:27;11.30;99.90
3310;DHT22;1667;53.238;10.394;2022-12-29T05:22:27;11.40;99.90
3310;DHT22;1667;53.238;10.394;2022-12-29T05:27:26;11.40;99.90
3310;DHT22;1667;53.238;10.394;2022-12-29T05:32:39;11.40;99.90
3310;DHT22;1667;53.238;10.394;2022-12-29T05:37:39;11.40;99.90
3310;DHT22;1667;53.238;10.394;2022-12-29T05:42:37;11.40;99.90
3310;DHT22;1667;53.238;10.394;2022-12-29T05:47:56;11.40;99.90
3310;DHT22;1667;53.238;10.394;2022-12-29T05:53:05;11.50;99.90
3310;DHT22;1667;53.238;10.394;2022-12-29T05:58:04;11.50;99.90
3310;DHT22;1667;53.238;10.394;2022-12-29T06:03:04;11.50;99.90
3310;DHT22;1667;53.238;10.394;2022-12-29T06:08:04;11.50;99.90
3310;DHT22;1667;53.238;10.394;2022-12-29T06:13:04;11.50;99.90
3310;DHT22;1667;53.238;10.394;2022-12-29T06:18:09;11.50;99.90
3310;DHT22;1667;53.238;10.394;2022-12-29T06:23:17;11.50;99.90
3310;DHT22;1667;53.238;10.394;2022-12-29T06:28:16;11.50;99.90
3310;DHT22;1667;53.238;10.394;2022-12-29T06:33:16;11.50;99.90
3310;DHT22;1667;53.238;10.394;2022-12-29T06:38:14;11.50;99.90
3310;DHT22;1667;53.238;10.394;2022-12-29T06:43:14;11.50;99.90
3310;DHT22;1667;53.238;10.394;2022-12-29T06:48:27;11.50;99.90
3310;DHT22;1667;53.238;10.394;2022-12-29T06:53:25;11.50;99.90
3310;DHT22;1667;53.238;10.394;2022-12-29T07:04:48;11.50;99.90
3310;DHT22;1667;53.238;10.394;2022-12-29T07:09:46;11.50;99.90
3310;DHT22;1667;53.238;10.394;2022-12-29T07:14:45;11.50;99.90
3310;DHT22;1667;53.238;10.394;2022-12-29T07:19:43;11.50;99.90
3310;DHT22;1667;53.238;10.394;2022-12-29T07:24:43;11.50;99.90
3310;DHT22;1667;53.238;10.394;2022-12-29T07:29:41;11.50;99.90
3310;DHT22;1667;53.238;10.394;2022-12-29T07:34:40;11.50;99.90
3310;DHT22;1667;53.238;10.394;2022-12-29T07:39:38;11.50;99.90
3310;DHT22;1667;53.238;10.394;2022-12-29T07:44:39;11.50;99.90
3310;DHT22;1667;53.238;10.394;2022-12-29T07:49:56;11.50;99.90
3310;DHT22;1667;53.238;10.394;2022-12-29T07:54:54;11.50;99.90
3310;DHT22;1667;53.238;10.394;2022-12-29T08:00:31;11.50;99.90
3310;DHT22;1667;53.238;10.394;2022-12-29T08:05:30;11.50;99.90
3310;DHT22;1667;53.238;10.394;2022-12-29T08:10:28;11.50;99.90
3310;DHT22;1667;53.238;10.394;2022-12-29T08:15:27;11.50;99.90
3310;DHT22;1667;53.238;10.394;2022-12-29T08:20:30;11.50;99.90
3310;DHT22;1667;53.238;10.394;2022-12-29T08:32:23;11.50;99.90
3310;DHT22;1667;53.238;10.394;2022-12-29T08:37:23;11.50;99.90
3310;DHT22;1667;53.238;10.394;2022-12-29T08:48:16;11.50;99.90
3310;DHT22;1667;53.238;10.394;2022-12-29T08:53:18;11.40;99.90
3310;DHT22;1667;53.238;10.394;2022-12-29T08:58:17;11.40;99.90
3310;DHT22;1667;53.238;10.394;2022-12-29T09:03:15;11.40;99.90
3310;DHT22;1667;53.238;10.394;2022-12-29T09:08:35;11.40;99.90
3310;DHT22;1667;53.238;10.394;2022-12-29T09:13:34;11.40;99.90
3310;DHT22;1667;53.238;10.394;2022-12-29T09:18:33;11.40;99.90
3310;DHT22;1667;53.238;10.394;2022-12-29T09:23:32;11.40;99.90
3310;DHT22;1667;53.238;10.394;2022-12-29T09:28:33;11.40;99.90
3310;DHT22;1667;53.238;10.394;2022-12-29T09:33:31;11.40;99.90
3310;DHT22;1667;53.238;10.394;2022-12-29T09:38:31;11.40;99.90
3310;DHT22;1667;53.238;10.394;2022-12-29T09:43:58;11.40;99.90
3310;DHT22;1667;53.238;10.394;2022-12-29T09:49:07;11.50;99.90
3310;DHT22;1667;53.238;10.394;2022-12-29T09:54:27;11.50;99.90
3310;DHT22;1667;53.238;10.394;2022-12-29T09:59:39;11.50;99.90
3310;DHT22;1667;53.238;10.394;2022-12-29T10:04:39;11.50;99.90
3310;DHT22;1667;53.238;10.394;2022-12-29T10:09:45;11.50;99.90
3310;DHT22;1667;53.238;10.394;2022-12-29T10:14:56;11.60;99.90
3310;DHT22;1667;53.238;10.394;2022-12-29T10:20:16;11.60;99.90
3310;DHT22;1667;53.238;10.394;2022-12-29T10:25:19;11.60;99.90
3310;DHT22;1667;53.238;10.394;2022-12-29T10:30:19;11.70;99.90
3310;DHT22;1667;53.238;10.394;2022-12-29T10:41:24;11.80;99.90
3310;DHT22;1667;53.238;10.394;2022-12-29T10:46:27;11.80;99.90
3310;DHT22;1667;53.238;10.394;2022-12-29T10:51:32;11.80;99.90
3310;DHT22;1667;53.238;10.394;2022-12-29T10:56:34;11.90;99.90
3310;DHT22;1667;53.238;10.394;2022-12-29T11:15:13;12.10;99.90
3310;DHT22;1667;53.238;10.394;2022-12-29T11:20:29;12.10;99.90
3310;DHT22;1667;53.238;10.394;2022-12-29T11:25:28;12.20;99.90
3310;DHT22;1667;53.238;10.394;2022-12-29T11:30:30;12.20;99.90
3310;DHT22;1667;53.238;10.394;2022-12-29T11:35:32;12.30;99.90
3310;DHT22;1667;53.238;10.394;2022-12-29T11:40:31;12.30;99.90
3310;DHT22;1667;53.238;10.394;2022-12-29T11:52:36;12.40;99.90
3310;DHT22;1667;53.238;10.394;2022-12-29T11:57:36;12.40;99.90
3310;DHT22;1667;53.238;10.394;2022-12-29T12:02:42;12.40;99.90
3310;DHT22;1667;53.238;10.394;2022-12-29T12:07:46;12.40;99.90
3310;DHT22;1667;53.238;10.394;2022-12-29T12:12:51;12.40;99.90
3310;DHT22;1667;53.238;10.394;2022-12-29T12:17:54;12.40;99.90
3310;DHT22;1667;53.238;10.394;2022-12-29T12:23:11;12.40;99.90
3310;DHT22;1667;53.238;10.394;2022-12-29T12:28:13;12.40;99.90
3310;DHT22;1667;53.238;10.394;2022-12-29T12:33:21;12.40;99.90
3310;DHT22;1667;53.238;10.394;2022-12-29T12:38:28;12.40;99.90
3310;DHT22;1667;53.238;10.394;2022-12-29T12:43:43;12.40;99.90
3310;DHT22;1667;53.238;10.394;2022-12-29T12:48:52;12.40;99.90
3310;DHT22;1667;53.238;10.394;2022-12-29T12:54:09;12.40;99.90
3310;DHT22;1667;53.238;10.394;2022-12-29T12:59:20;12.40;99.90
3310;DHT22;1667;53.238;10.394;2022-12-29T13:10:41;12.40;99.90
3310;DHT22;1667;53.238;10.394;2022-12-29T13:15:56;12.40;99.90
3310;DHT22;1667;53.238;10.394;2022-12-29T13:21:03;12.40;99.90
3310;DHT22;1667;53.238;10.394;2022-12-29T13:26:14;12.30;99.90
3310;DHT22;1667;53.238;10.394;2022-12-29T13:31:20;12.30;99.90
3310;DHT22;1667;53.238;10.394;2022-12-29T13:36:25;12.30;99.90
3310;DHT22;1667;53.238;10.394;2022-12-29T13:41:30;12.30;99.90
3310;DHT22;1667;53.238;10.394;2022-12-29T13:52:23;12.30;99.90
3310;DHT22;1667;53.238;10.394;2022-12-29T13:57:35;12.40;99.90
3310;DHT22;1667;53.238;10.394;2022-12-29T14:02:46;12.30;99.90
3310;DHT22;1667;53.238;10.394;2022-12-29T14:07:57;12.30;99.90
3310;DHT22;1667;53.238;10.394;2022-12-29T14:13:10;12.30;99.90
3310;DHT22;1667;53.238;10.394;2022-12-29T14:18:14;12.40;99.90
3310;DHT22;1667;53.238;10.394;2022-12-29T14:23:24;12.30;99.90
3310;DHT22;1667;53.238;10.394;2022-12-29T14:28:26;12.30;99.90
3310;DHT22;1667;53.238;10.394;2022-12-29T14:33:28;12.30;99.90
3310;DHT22;1667;53.238;10.394;2022-12-29T14:38:28;12.30;99.90
3310;DHT22;1667;53.238;10.394;2022-12-29T14:43:28;12.20;99.90
3310;DHT22;1667;53.238;10.394;2022-12-29T14:48:39;12.20;99.90
3310;DHT22;1667;53.238;10.394;2022-12-29T14:53:45;12.20;99.90
3310;DHT22;1667;53.238;10.394;2022-12-29T14:58:48;12.20;99.90
3310;DHT22;1667;53.238;10.394;2022-12-29T15:03:50;12.10;99.90
3310;DHT22;1667;53.238;10.394;2022-12-29T15:08:51;12.00;99.90
3310;DHT22;1667;53.238;10.394;2022-12-29T15:13:52;12.00;99.90
3310;DHT22;1667;53.238;10.394;2022-12-29T15:18:50;11.90;99.90
3310;DHT22;1667;53.238;10.394;2022-12-29T15:23:49;11.90;99.90
3310;DHT22;1667;53.238;10.394;2022-12-29T15:28:48;11.90;99.90
3310;DHT22;1667;53.238;10.394;2022-12-29T15:40:24;11.70;99.90
3310;DHT22;1667;53.238;10.394;2022-12-29T15:45:26;11.60;99.90
3310;DHT22;1667;53.238;10.394;2022-12-29T15:50:29;11.60;99.90
3310;DHT22;1667;53.238;10.394;2022-12-29T15:55:32;11.50;99.90
3310;DHT22;1667;53.238;10.394;2022-12-29T16:06:32;11.50;99.90
3310;DHT22;1667;53.238;10.394;2022-12-29T16:11:35;11.40;99.90
3310;DHT22;1667;53.238;10.394;2022-12-29T16:22:40;11.50;99.90
3310;DHT22;1667;53.238;10.394;2022-12-29T16:27:43;11.50;99.90
3310;DHT22;1667;53.238;10.394;2022-12-29T16:32:45;11.50;99.90
3310;DHT22;1667;53.238;10.394;2022-12-29T16:37:45;11.40;99.90
3310;DHT22;1667;53.238;10.394;2022-12-29T16:42:49;11.40;99.90
3310;DHT22;1667;53.238;10.394;2022-12-29T16:48:10;11.30;99.90
3310;DHT22;1667;53.238;10.394;2022-12-29T16:53:19;11.30;99.90
3310;DHT22;1667;53.238;10.394;2022-12-29T16:58:22;11.30;99.90
3310;DHT22;1667;53.238;10.394;2022-12-29T17:03:20;11.30;99.90
3310;DHT22;1667;53.238;10.394;2022-12-29T17:08:20;11.30;99.90
3310;DHT22;1667;53.238;10.394;2022-12-29T17:20:15;11.40;99.90
3310;DHT22;1667;53.238;10.394;2022-12-29T17:25:14;11.30;99.90
3310;DHT22;1667;53.238;10.394;2022-12-29T17:30:14;11.30;99.90
3310;DHT22;1667;53.238;10.394;2022-12-29T17:35:15;11.30;99.90
3310;DHT22;1667;53.238;10.394;2022-12-29T17:40:15;11.30;99.90
3310;DHT22;1667;53.238;10.394;2022-12-29T17:45:15;11.30;99.90
3310;DHT22;1667;53.238;10.394;2022-12-29T17:50:17;11.20;99.90
3310;DHT22;1667;53.238;10.394;2022-12-29T17:55:17;11.20;99.90
3310;DHT22;1667;53.238;10.394;2022-12-29T18:00:17;11.20;99.90
3310;DHT22;1667;53.238;10.394;2022-12-29T18:05:20;11.20;99.90
3310;DHT22;1667;53.238;10.394;2022-12-29T18:10:18;11.20;99.90
3310;DHT22;1667;53.238;10.394;2022-12-29T18:15:19;11.20;99.90
3310;DHT22;1667;53.238;10.394;2022-12-29T18:20:19;11.20;99.90
3310;DHT22;1667;53.238;10.394;2022-12-29T18:25:21;11.20;99.90
3310;DHT22;1667;53.238;10.394;2022-12-29T18:36:25;11.10;99.90
3310;DHT22;1667;53.238;10.394;2022-12-29T18:41:26;11.10;99.90
3310;DHT22;1667;53.238;10.394;2022-12-29T18:46:25;11.00;99.90
3310;DHT22;1667;53.238;10.394;2022-12-29T18:51:25;11.00;99.90
3310;DHT22;1667;53.238;10.394;2022-12-29T18:56:23;10.90;99.90
3310;DHT22;1667;53.238;10.394;2022-12-29T19:01:23;10.90;99.90
3310;DHT22;1667;53.238;10.394;2022-12-29T19:06:25;10.90;99.90
3310;DHT22;1667;53.238;10.394;2022-12-29T19:11:23;10.90;99.90
3310;DHT22;1667;53.238;10.394;2022-12-29T19:16:22;10.90;99.90
3310;DHT22;1667;53.238;10.394;2022-12-29T19:21:21;10.90;99.90
3310;DHT22;1667;53.238;10.394;2022-12-29T19:26:27;10.90;99.90
3310;DHT22;1667;53.238;10.394;2022-12-29T19:31:26;10.90;99.90
3310;DHT22;1667;53.238;10.394;2022-12-29T19:36:25;10.90;99.90
3310;DHT22;1667;53.238;10.394;2022-12-29T19:41:24;10.90;99.90
3310;DHT22;1667;53.238;10.394;2022-12-29T19:46:23;11.00;99.90
3310;DHT22;1667;53.238;10.394;2022-12-29T19:51:22;11.00;99.90
3310;DHT22;1667;53.238;10.394;2022-12-29T19:56:22;10.90;99.90
3310;DHT22;1667;53.238;10.394;2022-12-29T20:01:22;10.90;99.90
3310;DHT22;1667;53.238;10.394;2022-12-29T20:06:21;11.00;99.90
3310;DHT22;1667;53.238;10.394;2022-12-29T20:11:20;11.00;99.90
3310;DHT22;1667;53.238;10.394;2022-12-29T20:16:19;11.00;99.90
3310;DHT22;1667;53.238;10.394;2022-12-29T20:21:20;10.90;99.90
3310;DHT22;1667;53.238;10.394;2022-12-29T20:26:21;10.90;99.90
3310;DHT22;1667;53.238;10.394;2022-12-29T20:31:23;10.90;99.90
3310;DHT22;1667;53.238;10.394;2022-12-29T20:36:26;10.90;99.90
3310;DHT22;1667;53.238;10.394;2022-12-29T20:41:25;10.90;99.90
3310;DHT22;1667;53.238;10.394;2022-12-29T20:46:24;11.00;99.90
3310;DHT22;1667;53.238;10.394;2022-12-29T20:51:32;11.00;99.90
3310;DHT22;1667;53.238;10.394;2022-12-29T20:56:51;11.10;99.90
3310;DHT22;1667;53.238;10.394;2022-12-29T21:01:50;11.10;99.90
3310;DHT22;1667;53.238;10.394;2022-12-29T21:06:50;11.10;99.90
3310;DHT22;1667;53.238;10.394;2022-12-29T21:11:48;11.10;99.90
3310;DHT22;1667;53.238;10.394;2022-12-29T21:16:47;11.20;99.90
3310;DHT22;1667;53.238;10.394;2022-12-29T21:21:45;11.10;99.90
3310;DHT22;1667;53.238;10.394;2022-12-29T21:26:45;11.10;99.90
3310;DHT22;1667;53.238;10.394;2022-12-29T21:31:44;11.10;99.90
3310;DHT22;1667;53.238;10.394;2022-12-29T21:36:44;11.10;99.90
3310;DHT22;1667;53.238;10.394;2022-12-29T21:41:42;11.10;99.90
3310;DHT22;1667;53.238;10.394;2022-12-29T21:46:42;11.00;99.90
3310;DHT22;1667;53.238;10.394;2022-12-29T21:51:42;10.70;99.90
3310;DHT22;1667;53.238;10.394;2022-12-29T21:56:47;10.60;99.90
3310;DHT22;1667;53.238;10.394;2022-12-29T22:01:47;10.60;99.90
3310;DHT22;1667;53.238;10.394;2022-12-29T22:07:03;10.60;99.90
3310;DHT22;1667;53.238;10.394;2022-12-29T22:12:20;10.40;99.90
3310;DHT22;1667;53.238;10.394;2022-12-29T22:24:33;10.30;99.90
3310;DHT22;1667;53.238;10.394;2022-12-29T22:29:31;10.20;99.90
3310;DHT22;1667;53.238;10.394;2022-12-29T22:34:30;10.20;99.90
3310;DHT22;1667;53.238;10.394;2022-12-29T22:39:28;10.20;99.90
3310;DHT22;1667;53.238;10.394;2022-12-29T22:44:28;10.10;99.90
3310;DHT22;1667;53.238;10.394;2022-12-29T22:49:27;10.20;99.90
3310;DHT22;1667;53.238;10.394;2022-12-29T22:54:26;10.10;99.90
3310;DHT22;1667;53.238;10.394;2022-12-29T22:59:24;10.00;99.90
3310;DHT22;1667;53.238;10.394;2022-12-29T23:04:50;10.00;99.90
3310;DHT22;1667;53.238;10.394;2022-12-29T23:10:04;10.00;99.90
3310;DHT22;1667;53.238;10.394;2022-12-29T23:15:08;9.90;99.90
3310;DHT22;1667;53.238;10.394;2022-12-29T23:20:08;9.90;99.90
3310;DHT22;1667;53.238;10.394;2022-12-29T23:25:08;9.90;99.90
3310;DHT22;1667;53.238;10.394;2022-12-29T23:30:07;9.90;99.90
3310;DHT22;1667;53.238;10.394;2022-12-29T23:35:08;9.90;99.90
3310;DHT22;1667;53.238;10.394;2022-12-29T23:40:07;9.80;99.90
3310;DHT22;1667;53.238;10.394;2022-12-29T23:45:07;9.80;99.90
3310;DHT22;1667;53.238;10.394;2022-12-29T23:50:06;9.70;99.90
3310;DHT22;1667;53.238;10.394;2022-12-29T23:55:07;9.60;99.90
